^^

Nearby METAR Reports

 

KFNL - Ft Collins/Lovel, Colorado, USA
Distance from station: N 2mi, 3km
Updated: 05/25/2024 1:56 am
Clear
Clear
 Wind from calm
Wind: Calm
Temperature: 57°F, 14°C
Dew Point: 36°F, 2°C
Humidity: 44%
Barometer: 29.80 inHg, 1009.1 hPa
Clouds: Clear
Visibility: 10 miles, 16 km
2024/05/25 07:56 KFNL 250756Z AUTO 00000KT 10SM CLR 14/02 A2980 RMK AO2 SLP043 T01390017 $
KLMO - Longmont/Vbrand, Colorado, USA
Distance from station: SSW 19mi, 31km
Updated: 05/25/2024 1:55 am
Clear
Clear
 Wind from calm
Wind: Calm
Temperature: 52°F, 11°C
Dew Point: 36°F, 2°C
Humidity: 54%
Barometer: 29.81 inHg, 1009.5 hPa
Clouds: Clear
Visibility: 7 miles, 11 km
2024/05/25 07:55 KLMO 250755Z AUTO 00000KT 7SM CLR 11/02 A2981 RMK AO2 T01120015
 
KGXY - Greeley/Weld, Colorado, USA
Distance from station: E 21mi, 34km
Updated: 05/25/2024 1:56 am
Clear
Clear
 Wind from ESE
Wind: ESE 15 mph, 24 km/h
Temperature: 63°F, 17°C
Dew Point: 30°F, -1°C
Humidity: 30%
Barometer: 29.79 inHg, 1008.8 hPa
Clouds: Clear
Visibility: 10 miles, 16 km
2024/05/25 07:56 KGXY 250756Z 12013KT 10SM CLR 17/M01 A2979 RMK AO2 SLP057 T01671006
KEIK - Erie Muni, Colorado, USA
Distance from station: S 28mi, 45km
Updated: 05/25/2024 1:55 am
Clear
Clear
 Wind from SW
Wind: SW 3 mph, 6 km/h
Temperature: 48°F, 9°C
Dew Point: 36°F, 2°C
Humidity: 62%
Barometer: 29.78 inHg, 1008.5 hPa
Clouds: Clear
Visibility: 10 miles, 16 km
2024/05/25 07:55 KEIK 250755Z AUTO 23003KT 10SM CLR 09/02 A2978 RMK AO2 T00920015 $
 
KBDU - Boulder Muni, Colorado, USA
Distance from station: SSW 29mi, 47km
Updated: 05/25/2024 1:55 am
Clear
Clear
 Wind from calm
Wind: Calm
Temperature: 52°F, 11°C
Dew Point: 32°F, 0°C
Humidity: 47%
Barometer: 29.79 inHg, 1008.8 hPa
Clouds: Clear
Visibility: 10 miles, 16 km
2024/05/25 07:55 KBDU 250755Z AUTO 00000KT 10SM CLR 11/00 A2979 RMK AO2
KBJC - Broomfield/Jeffc, Colorado, USA
Distance from station: S 36mi, 58km
Updated: 05/25/2024 1:55 am
Clear
Clear
 Wind from NW
Wind: NW 5 mph, 7 km/h
Temperature: 57°F, 14°C
Dew Point: 30°F, -1°C
Humidity: 36%
Barometer: 29.81 inHg, 1009.5 hPa
Clouds: Clear
Visibility: 10 miles, 16 km
2024/05/25 07:55 KBJC 250755Z AUTO 32004KT 10SM CLR 14/M01 A2981 RMK AO2
 
KDEN - Denver (dia), Colorado, USA
Distance from station: SSE 44mi, 70km
Updated: 05/25/2024 1:53 am
Few Clouds
Few Clouds
 Wind from S
Wind: S 12 mph, 19 km/h
Temperature: 50°F, 10°C
Wind Chill: 45°F, 7°C
Dew Point: 34°F, 1°C
Humidity: 54%
Barometer: 29.81 inHg, 1009.5 hPa
Clouds: Few Clouds
Visibility: 10 miles, 16 km
Cloud details: Few Clouds 22000 ft
2024/05/25 07:53 KDEN 250753Z 17010KT 10SM FEW220 10/01 A2981 RMK AO2 SLP039 T01000006
KFEW - Warren Air Base, Wyoming, USA
Distance from station: N 50mi, 80km
Updated: 05/24/2024 6:55 pm
NOT Current
Clear
Clear
 Wind from WSW
Wind: WSW 14 mph, 22 km/h
Temperature: 66°F, 19°C
Dew Point: 3°F, -16°C
Humidity: 8%
Barometer: 29.87 inHg, 1011.5 hPa
Clouds: Clear
Visibility: 10 miles, 16 km
2024/05/25 00:55 KFEW 250055Z AUTO 25012KT 10SM CLR 19/M16 A2987 RMK AO2 SLPNO T01871163 $
 
KBKF - Buckley Angb/Den, Colorado, USA
Distance from station: SSE 50mi, 81km
Updated: 05/24/2024 8:58 pm
NOT Current
Mostly cloudy
Mostly cloudy
 Wind from S
Wind: S 10 mph, 17 km/h
Temperature: 61°F, 16°C
Dew Point: 30°F, -1°C
Humidity: 31%
Barometer: 29.87 inHg, 1011.5 hPa
Clouds: Mostly cloudy
Visibility: 10 miles, 16 km
Cloud details: Few Clouds 9000 ft
Mostly cloudy 13000 ft
Mostly cloudy 22000 ft
2024/05/25 02:58 KBKF 250258Z 17009KT 10SM FEW090 BKN130 BKN220 16/M01 A2987 RMK AO2A SLP064 T01581011 53003